sensor_id;sensor_type;location;lat;lon;timestamp;pressure;altitude;pressure_sealevel;temperature;humidity
5703;BME280;2876;51.738;10.050;2022-07-22T00:05:54;99565.16;;;19.39;95.98
5703;BME280;2876;51.738;10.050;2022-07-22T00:11:56;99568.97;;;19.38;95.81
5703;BME280;2876;51.738;10.050;2022-07-22T00:17:58;99577.88;;;19.34;96.88
5703;BME280;2876;51.738;10.050;2022-07-22T00:24:00;99572.56;;;19.44;96.16
5703;BME280;2876;51.738;10.050;2022-07-22T00:30:04;99575.28;;;19.22;97.46
5703;BME280;2876;51.738;10.050;2022-07-22T00:36:07;99580.47;;;19.23;97.76
5703;BME280;2876;51.738;10.050;2022-07-22T00:42:09;99562.50;;;19.22;97.75
5703;BME280;2876;51.738;10.050;2022-07-22T00:48:11;99574.41;;;18.99;98.81
5703;BME280;2876;51.738;10.050;2022-07-22T00:54:13;99562.94;;;18.97;98.96
5703;BME280;2876;51.738;10.050;2022-07-22T01:00:19;99573.47;;;19.11;98.66
5703;BME280;2876;51.738;10.050;2022-07-22T01:06:22;99568.97;;;18.99;99.97
5703;BME280;2876;51.738;10.050;2022-07-22T01:12:24;99578.53;;;18.85;100.00
5703;BME280;2876;51.738;10.050;2022-07-22T01:18:26;99576.88;;;18.84;100.00
5703;BME280;2876;51.738;10.050;2022-07-22T01:24:29;99580.66;;;18.83;100.00
5703;BME280;2876;51.738;10.050;2022-07-22T01:30:31;99588.06;;;19.05;100.00
5703;BME280;2876;51.738;10.050;2022-07-22T01:36:33;99579.06;;;19.21;100.00
5703;BME280;2876;51.738;10.050;2022-07-22T01:42:35;99580.59;;;18.95;100.00
5703;BME280;2876;51.738;10.050;2022-07-22T01:48:37;99574.16;;;19.01;100.00
5703;BME280;2876;51.738;10.050;2022-07-22T01:54:39;99558.19;;;18.88;100.00
5703;BME280;2876;51.738;10.050;2022-07-22T02:00:42;99567.56;;;18.97;100.00
5703;BME280;2876;51.738;10.050;2022-07-22T02:06:44;99568.22;;;18.87;100.00
5703;BME280;2876;51.738;10.050;2022-07-22T02:12:46;99572.31;;;19.07;100.00
5703;BME280;2876;51.738;10.050;2022-07-22T02:18:48;99573.78;;;19.31;100.00
5703;BME280;2876;51.738;10.050;2022-07-22T02:24:50;99564.75;;;19.09;100.00
5703;BME280;2876;51.738;10.050;2022-07-22T02:30:52;99564.41;;;19.22;100.00
5703;BME280;2876;51.738;10.050;2022-07-22T02:36:54;99566.63;;;19.47;100.00
5703;BME280;2876;51.738;10.050;2022-07-22T02:42:58;99560.53;;;19.18;100.00
5703;BME280;2876;51.738;10.050;2022-07-22T02:49:01;99560.13;;;19.09;100.00
5703;BME280;2876;51.738;10.050;2022-07-22T02:55:04;99575.56;;;19.04;100.00
5703;BME280;2876;51.738;10.050;2022-07-22T03:01:08;99556.94;;;18.79;100.00
5703;BME280;2876;51.738;10.050;2022-07-22T03:07:11;99574.63;;;18.64;100.00
5703;BME280;2876;51.738;10.050;2022-07-22T03:13:13;99568.28;;;18.59;100.00
5703;BME280;2876;51.738;10.050;2022-07-22T03:19:15;99589.50;;;18.62;100.00
5703;BME280;2876;51.738;10.050;2022-07-22T03:25:17;99580.78;;;18.60;100.00
5703;BME280;2876;51.738;10.050;2022-07-22T03:31:20;99579.63;;;18.56;100.00
5703;BME280;2876;51.738;10.050;2022-07-22T03:37:22;99579.56;;;18.50;100.00
5703;BME280;2876;51.738;10.050;2022-07-22T03:43:24;99580.16;;;18.69;100.00
5703;BME280;2876;51.738;10.050;2022-07-22T03:49:26;99584.19;;;18.67;100.00
5703;BME280;2876;51.738;10.050;2022-07-22T03:55:29;99585.41;;;18.14;100.00
5703;BME280;2876;51.738;10.050;2022-07-22T04:01:31;99595.75;;;18.45;100.00
5703;BME280;2876;51.738;10.050;2022-07-22T04:07:34;99599.56;;;18.61;100.00
5703;BME280;2876;51.738;10.050;2022-07-22T04:13:36;99601.94;;;18.41;100.00
5703;BME280;2876;51.738;10.050;2022-07-22T04:19:38;99592.97;;;18.40;100.00
5703;BME280;2876;51.738;10.050;2022-07-22T04:25:40;99601.66;;;18.42;100.00
5703;BME280;2876;51.738;10.050;2022-07-22T04:31:42;99605.47;;;18.13;100.00
5703;BME280;2876;51.738;10.050;2022-07-22T04:37:44;99615.19;;;18.09;100.00
5703;BME280;2876;51.738;10.050;2022-07-22T04:43:46;99624.50;;;18.01;100.00
5703;BME280;2876;51.738;10.050;2022-07-22T04:49:48;99625.66;;;17.77;100.00
5703;BME280;2876;51.738;10.050;2022-07-22T04:55:50;99623.88;;;17.82;100.00
5703;BME280;2876;51.738;10.050;2022-07-22T05:01:53;99630.59;;;17.68;100.00
5703;BME280;2876;51.738;10.050;2022-07-22T05:07:55;99633.53;;;17.78;100.00
5703;BME280;2876;51.738;10.050;2022-07-22T05:13:57;99644.72;;;17.93;100.00
5703;BME280;2876;51.738;10.050;2022-07-22T05:20:02;99633.69;;;18.12;100.00
5703;BME280;2876;51.738;10.050;2022-07-22T05:26:05;99637.84;;;18.03;100.00
5703;BME280;2876;51.738;10.050;2022-07-22T05:32:07;99638.28;;;18.11;100.00
5703;BME280;2876;51.738;10.050;2022-07-22T05:38:09;99648.13;;;18.29;100.00
5703;BME280;2876;51.738;10.050;2022-07-22T05:44:11;99645.03;;;18.37;100.00
5703;BME280;2876;51.738;10.050;2022-07-22T05:50:13;99652.75;;;18.29;100.00
5703;BME280;2876;51.738;10.050;2022-07-22T05:56:24;99647.50;;;18.39;100.00
5703;BME280;2876;51.738;10.050;2022-07-22T06:02:26;99665.38;;;18.63;98.92
5703;BME280;2876;51.738;10.050;2022-07-22T06:08:28;99661.44;;;18.71;97.88
5703;BME280;2876;51.738;10.050;2022-07-22T06:14:30;99664.06;;;18.37;99.13
5703;BME280;2876;51.738;10.050;2022-07-22T06:20:32;99666.66;;;18.61;98.33
5703;BME280;2876;51.738;10.050;2022-07-22T06:26:34;99669.06;;;18.86;96.96
5703;BME280;2876;51.738;10.050;2022-07-22T06:32:36;99666.63;;;18.44;97.35
5703;BME280;2876;51.738;10.050;2022-07-22T06:38:45;99685.31;;;18.40;98.62
5703;BME280;2876;51.738;10.050;2022-07-22T06:44:48;99681.03;;;18.44;97.83
5703;BME280;2876;51.738;10.050;2022-07-22T06:50:50;99681.56;;;18.30;97.51
5703;BME280;2876;51.738;10.050;2022-07-22T06:56:54;99691.59;;;18.29;98.15
5703;BME280;2876;51.738;10.050;2022-07-22T07:03:00;99695.13;;;18.30;98.91
5703;BME280;2876;51.738;10.050;2022-07-22T07:09:22;99694.56;;;18.28;100.00
5703;BME280;2876;51.738;10.050;2022-07-22T07:15:27;99691.84;;;18.28;100.00
5703;BME280;2876;51.738;10.050;2022-07-22T07:21:29;99692.63;;;18.40;100.00
5703;BME280;2876;51.738;10.050;2022-07-22T07:27:31;99691.84;;;18.85;100.00
5703;BME280;2876;51.738;10.050;2022-07-22T07:33:34;99689.56;;;18.93;99.98
5703;BME280;2876;51.738;10.050;2022-07-22T07:39:36;99699.22;;;19.35;96.82
5703;BME280;2876;51.738;10.050;2022-07-22T07:45:38;99691.94;;;19.57;95.58
5703;BME280;2876;51.738;10.050;2022-07-22T07:51:41;99695.84;;;19.78;93.77
5703;BME280;2876;51.738;10.050;2022-07-22T07:57:43;99701.41;;;19.88;93.65
5703;BME280;2876;51.738;10.050;2022-07-22T08:03:47;99687.94;;;19.98;89.40
5703;BME280;2876;51.738;10.050;2022-07-22T08:10:07;99688.41;;;20.12;88.53
5703;BME280;2876;51.738;10.050;2022-07-22T08:16:29;99681.03;;;20.84;85.24
5703;BME280;2876;51.738;10.050;2022-07-22T08:22:31;99674.41;;;21.07;83.32
5703;BME280;2876;51.738;10.050;2022-07-22T08:28:34;99682.31;;;21.35;79.49
5703;BME280;2876;51.738;10.050;2022-07-22T08:34:36;99677.63;;;20.98;81.75
5703;BME280;2876;51.738;10.050;2022-07-22T08:40:38;99683.09;;;20.71;82.28
5703;BME280;2876;51.738;10.050;2022-07-22T08:46:40;99682.22;;;20.66;82.90
5703;BME280;2876;51.738;10.050;2022-07-22T08:52:45;99686.84;;;20.92;80.61
5703;BME280;2876;51.738;10.050;2022-07-22T08:58:47;99691.16;;;20.88;81.27
5703;BME280;2876;51.738;10.050;2022-07-22T09:05:05;99689.56;;;20.43;80.67
5703;BME280;2876;51.738;10.050;2022-07-22T09:11:30;99687.00;;;20.10;81.54
5703;BME280;2876;51.738;10.050;2022-07-22T09:17:35;99690.91;;;20.19;82.35
5703;BME280;2876;51.738;10.050;2022-07-22T09:23:42;99691.31;;;20.49;80.33
5703;BME280;2876;51.738;10.050;2022-07-22T09:29:49;99681.59;;;20.15;82.28
5703;BME280;2876;51.738;10.050;2022-07-22T09:36:03;99681.16;;;20.23;81.82
5703;BME280;2876;51.738;10.050;2022-07-22T09:42:08;99680.78;;;20.14;82.50
5703;BME280;2876;51.738;10.050;2022-07-22T09:48:11;99685.34;;;20.09;83.07
5703;BME280;2876;51.738;10.050;2022-07-22T09:54:13;99685.13;;;19.93;82.60
5703;BME280;2876;51.738;10.050;2022-07-22T10:00:20;99692.50;;;20.37;81.66
5703;BME280;2876;51.738;10.050;2022-07-22T10:06:23;99689.81;;;20.42;81.39
5703;BME280;2876;51.738;10.050;2022-07-22T10:12:25;99695.06;;;20.70;79.58
5703;BME280;2876;51.738;10.050;2022-07-22T10:18:29;99697.59;;;21.04;78.00
5703;BME280;2876;51.738;10.050;2022-07-22T10:24:32;99697.44;;;21.21;77.34
5703;BME280;2876;51.738;10.050;2022-07-22T10:30:37;99693.34;;;21.18;76.65
5703;BME280;2876;51.738;10.050;2022-07-22T10:36:40;99698.84;;;21.56;74.40
5703;BME280;2876;51.738;10.050;2022-07-22T10:48:59;99699.06;;;21.17;75.88
5703;BME280;2876;51.738;10.050;2022-07-22T10:55:21;99697.97;;;21.18;76.65
5703;BME280;2876;51.738;10.050;2022-07-22T11:01:27;99697.66;;;21.41;76.20
5703;BME280;2876;51.738;10.050;2022-07-22T11:07:30;99693.84;;;21.47;75.53
5703;BME280;2876;51.738;10.050;2022-07-22T11:13:40;99683.75;;;21.16;75.11
5703;BME280;2876;51.738;10.050;2022-07-22T11:19:42;99689.91;;;21.70;73.44
5703;BME280;2876;51.738;10.050;2022-07-22T11:25:46;99692.25;;;21.94;71.96
5703;BME280;2876;51.738;10.050;2022-07-22T11:31:48;99679.00;;;22.18;71.57
5703;BME280;2876;51.738;10.050;2022-07-22T11:37:59;99681.97;;;22.94;70.87
5703;BME280;2876;51.738;10.050;2022-07-22T11:44:02;99674.53;;;23.46;68.29
5703;BME280;2876;51.738;10.050;2022-07-22T11:50:05;99682.50;;;23.32;66.74
5703;BME280;2876;51.738;10.050;2022-07-22T11:56:09;99684.41;;;23.11;66.78
5703;BME280;2876;51.738;10.050;2022-07-22T12:02:13;99665.53;;;22.89;68.63
5703;BME280;2876;51.738;10.050;2022-07-22T12:08:16;99669.91;;;23.00;68.43
5703;BME280;2876;51.738;10.050;2022-07-22T12:14:22;99672.03;;;22.58;70.96
5703;BME280;2876;51.738;10.050;2022-07-22T12:20:25;99655.88;;;22.66;69.89
5703;BME280;2876;51.738;10.050;2022-07-22T12:26:48;99654.97;;;22.30;70.91
5703;BME280;2876;51.738;10.050;2022-07-22T12:32:50;99642.84;;;22.11;72.25
5703;BME280;2876;51.738;10.050;2022-07-22T12:38:54;99651.56;;;22.02;71.97
5703;BME280;2876;51.738;10.050;2022-07-22T12:45:09;99649.25;;;22.32;71.99
5703;BME280;2876;51.738;10.050;2022-07-22T12:51:12;99653.94;;;22.51;72.18
5703;BME280;2876;51.738;10.050;2022-07-22T12:57:14;99650.75;;;23.21;70.25
5703;BME280;2876;51.738;10.050;2022-07-22T13:03:17;99634.53;;;23.75;65.22
5703;BME280;2876;51.738;10.050;2022-07-22T13:09:21;99650.44;;;23.53;65.34
5703;BME280;2876;51.738;10.050;2022-07-22T13:15:26;99636.78;;;23.27;67.33
5703;BME280;2876;51.738;10.050;2022-07-22T13:21:28;99624.00;;;23.98;64.93
5703;BME280;2876;51.738;10.050;2022-07-22T13:27:30;99634.72;;;23.99;66.18
5703;BME280;2876;51.738;10.050;2022-07-22T13:33:32;99623.28;;;24.42;65.97
5703;BME280;2876;51.738;10.050;2022-07-22T13:39:34;99629.81;;;24.51;63.09
5703;BME280;2876;51.738;10.050;2022-07-22T13:45:36;99617.88;;;24.71;62.27
5703;BME280;2876;51.738;10.050;2022-07-22T13:51:38;99614.44;;;25.23;61.56
5703;BME280;2876;51.738;10.050;2022-07-22T13:57:40;99629.59;;;27.11;56.91
5703;BME280;2876;51.738;10.050;2022-07-22T14:03:43;99626.41;;;26.71;55.97
5703;BME280;2876;51.738;10.050;2022-07-22T14:09:45;99607.00;;;26.01;57.22
5703;BME280;2876;51.738;10.050;2022-07-22T14:15:48;99600.66;;;25.82;57.97
5703;BME280;2876;51.738;10.050;2022-07-22T14:21:50;99600.78;;;25.42;58.80
5703;BME280;2876;51.738;10.050;2022-07-22T14:27:52;99595.81;;;24.47;61.98
5703;BME280;2876;51.738;10.050;2022-07-22T14:34:14;99591.47;;;24.41;62.62
5703;BME280;2876;51.738;10.050;2022-07-22T14:40:16;99591.25;;;24.27;62.71
5703;BME280;2876;51.738;10.050;2022-07-22T14:46:18;99604.91;;;24.42;62.22
5703;BME280;2876;51.738;10.050;2022-07-22T14:52:21;99594.25;;;24.30;61.46
5703;BME280;2876;51.738;10.050;2022-07-22T14:58:23;99585.25;;;24.20;62.63
5703;BME280;2876;51.738;10.050;2022-07-22T15:04:25;99585.66;;;24.47;62.42
5703;BME280;2876;51.738;10.050;2022-07-22T15:10:27;99578.28;;;24.43;63.46
5703;BME280;2876;51.738;10.050;2022-07-22T15:16:29;99585.41;;;24.49;62.55
5703;BME280;2876;51.738;10.050;2022-07-22T15:22:32;99575.91;;;23.61;65.15
5703;BME280;2876;51.738;10.050;2022-07-22T15:28:35;99571.84;;;24.18;62.93
5703;BME280;2876;51.738;10.050;2022-07-22T15:34:39;99566.66;;;24.12;63.47
5703;BME280;2876;51.738;10.050;2022-07-22T15:40:41;99570.50;;;24.11;63.32
5703;BME280;2876;51.738;10.050;2022-07-22T15:46:43;99568.84;;;24.15;63.09
5703;BME280;2876;51.738;10.050;2022-07-22T15:52:45;99577.50;;;24.32;61.59
5703;BME280;2876;51.738;10.050;2022-07-22T15:58:47;99562.50;;;24.64;61.33
5703;BME280;2876;51.738;10.050;2022-07-22T16:05:27;99558.75;;;25.66;57.32
5703;BME280;2876;51.738;10.050;2022-07-22T16:11:30;99567.91;;;26.04;56.83
5703;BME280;2876;51.738;10.050;2022-07-22T16:17:32;99560.47;;;26.61;55.29
5703;BME280;2876;51.738;10.050;2022-07-22T16:23:34;99553.94;;;26.76;54.72
5703;BME280;2876;51.738;10.050;2022-07-22T16:29:36;99546.22;;;26.40;55.81
5703;BME280;2876;51.738;10.050;2022-07-22T16:35:38;99551.84;;;26.68;55.01
5703;BME280;2876;51.738;10.050;2022-07-22T16:41:40;99532.38;;;27.93;50.99
5703;BME280;2876;51.738;10.050;2022-07-22T16:47:42;99548.66;;;28.31;49.37
5703;BME280;2876;51.738;10.050;2022-07-22T16:53:44;99531.00;;;28.99;47.51
5703;BME280;2876;51.738;10.050;2022-07-22T16:59:47;99530.25;;;29.56;45.98
5703;BME280;2876;51.738;10.050;2022-07-22T17:05:49;99533.84;;;29.56;45.80
5703;BME280;2876;51.738;10.050;2022-07-22T17:11:51;99522.38;;;29.01;47.36
5703;BME280;2876;51.738;10.050;2022-07-22T17:17:54;99523.41;;;28.24;48.31
5703;BME280;2876;51.738;10.050;2022-07-22T17:23:56;99529.31;;;26.98;53.15
5703;BME280;2876;51.738;10.050;2022-07-22T17:29:58;99520.72;;;26.53;53.81
5703;BME280;2876;51.738;10.050;2022-07-22T17:36:00;99507.44;;;26.04;55.42
5703;BME280;2876;51.738;10.050;2022-07-22T17:42:02;99503.97;;;25.32;57.13
5703;BME280;2876;51.738;10.050;2022-07-22T17:48:05;99502.13;;;24.29;60.87
5703;BME280;2876;51.738;10.050;2022-07-22T17:54:07;99504.38;;;24.22;61.29
5703;BME280;2876;51.738;10.050;2022-07-22T18:00:10;99510.16;;;23.76;63.47
5703;BME280;2876;51.738;10.050;2022-07-22T18:06:12;99499.38;;;23.20;65.19
5703;BME280;2876;51.738;10.050;2022-07-22T18:12:14;99505.19;;;23.03;66.29
5703;BME280;2876;51.738;10.050;2022-07-22T18:18:16;99494.00;;;22.18;69.34
5703;BME280;2876;51.738;10.050;2022-07-22T18:24:19;99492.28;;;22.07;70.48
5703;BME280;2876;51.738;10.050;2022-07-22T18:30:21;99514.31;;;21.65;71.63
5703;BME280;2876;51.738;10.050;2022-07-22T18:36:23;99500.13;;;21.58;72.19
5703;BME280;2876;51.738;10.050;2022-07-22T18:42:25;99500.63;;;21.49;72.68
5703;BME280;2876;51.738;10.050;2022-07-22T18:48:27;99489.97;;;20.95;73.57
5703;BME280;2876;51.738;10.050;2022-07-22T18:54:29;99490.72;;;20.48;76.32
5703;BME280;2876;51.738;10.050;2022-07-22T19:00:32;99496.34;;;20.42;76.74
5703;BME280;2876;51.738;10.050;2022-07-22T19:06:34;99494.75;;;20.46;76.96
5703;BME280;2876;51.738;10.050;2022-07-22T19:12:37;99502.69;;;19.66;79.96
5703;BME280;2876;51.738;10.050;2022-07-22T19:18:41;99507.91;;;19.51;81.27
5703;BME280;2876;51.738;10.050;2022-07-22T19:24:43;99520.13;;;19.26;82.34
5703;BME280;2876;51.738;10.050;2022-07-22T19:30:45;99532.59;;;19.22;82.63
5703;BME280;2876;51.738;10.050;2022-07-22T19:36:47;99534.31;;;18.90;84.21
5703;BME280;2876;51.738;10.050;2022-07-22T19:42:49;99528.38;;;18.76;84.87
5703;BME280;2876;51.738;10.050;2022-07-22T19:48:51;99528.09;;;18.61;85.34
5703;BME280;2876;51.738;10.050;2022-07-22T19:54:54;99537.47;;;18.36;86.11
5703;BME280;2876;51.738;10.050;2022-07-22T20:00:56;99523.44;;;18.11;87.38
5703;BME280;2876;51.738;10.050;2022-07-22T20:06:58;99525.50;;;18.04;88.29
5703;BME280;2876;51.738;10.050;2022-07-22T20:13:00;99523.56;;;17.87;89.15
5703;BME280;2876;51.738;10.050;2022-07-22T20:19:02;99523.56;;;17.87;89.06
5703;BME280;2876;51.738;10.050;2022-07-22T20:25:05;99521.47;;;17.66;90.34
5703;BME280;2876;51.738;10.050;2022-07-22T20:31:27;99500.09;;;17.69;91.11
5703;BME280;2876;51.738;10.050;2022-07-22T20:37:29;99515.31;;;17.70;92.34
5703;BME280;2876;51.738;10.050;2022-07-22T20:43:35;99514.31;;;17.60;93.32
5703;BME280;2876;51.738;10.050;2022-07-22T20:49:37;99520.81;;;17.59;93.65
5703;BME280;2876;51.738;10.050;2022-07-22T20:55:39;99526.59;;;17.50;93.36
5703;BME280;2876;51.738;10.050;2022-07-22T21:01:41;99523.41;;;17.54;93.08
5703;BME280;2876;51.738;10.050;2022-07-22T21:07:43;99534.16;;;17.37;92.81
5703;BME280;2876;51.738;10.050;2022-07-22T21:13:48;99524.75;;;17.16;92.21
5703;BME280;2876;51.738;10.050;2022-07-22T21:19:51;99526.09;;;17.13;92.80
5703;BME280;2876;51.738;10.050;2022-07-22T21:25:53;99524.31;;;17.07;92.76
5703;BME280;2876;51.738;10.050;2022-07-22T21:31:55;99513.38;;;16.90;92.53
5703;BME280;2876;51.738;10.050;2022-07-22T21:37:58;99505.38;;;16.72;92.63
5703;BME280;2876;51.738;10.050;2022-07-22T21:44:00;99510.84;;;16.54;93.98
5703;BME280;2876;51.738;10.050;2022-07-22T21:50:02;99508.38;;;16.40;95.37
5703;BME280;2876;51.738;10.050;2022-07-22T21:56:04;99510.03;;;16.65;95.00
5703;BME280;2876;51.738;10.050;2022-07-22T22:02:25;99512.50;;;16.66;95.66
5703;BME280;2876;51.738;10.050;2022-07-22T22:08:27;99513.25;;;16.73;95.83
5703;BME280;2876;51.738;10.050;2022-07-22T22:14:29;99525.84;;;16.80;96.45
5703;BME280;2876;51.738;10.050;2022-07-22T22:20:32;99523.16;;;16.91;97.01
5703;BME280;2876;51.738;10.050;2022-07-22T22:26:36;99533.28;;;16.96;96.77
5703;BME280;2876;51.738;10.050;2022-07-22T22:32:39;99522.19;;;17.09;96.55
5703;BME280;2876;51.738;10.050;2022-07-22T22:38:41;99525.13;;;17.08;96.12
5703;BME280;2876;51.738;10.050;2022-07-22T22:44:43;99511.22;;;17.16;96.23
5703;BME280;2876;51.738;10.050;2022-07-22T22:50:45;99521.97;;;16.99;96.71
5703;BME280;2876;51.738;10.050;2022-07-22T22:56:47;99505.94;;;17.09;96.35
5703;BME280;2876;51.738;10.050;2022-07-22T23:02:49;99510.63;;;17.14;96.41
5703;BME280;2876;51.738;10.050;2022-07-22T23:08:52;99495.03;;;17.33;95.27
5703;BME280;2876;51.738;10.050;2022-07-22T23:14:54;99487.41;;;17.06;95.85
5703;BME280;2876;51.738;10.050;2022-07-22T23:20:56;99492.50;;;17.03;94.97
5703;BME280;2876;51.738;10.050;2022-07-22T23:26:58;99504.84;;;16.98;95.69
5703;BME280;2876;51.738;10.050;2022-07-22T23:33:00;99488.53;;;16.82;96.31
5703;BME280;2876;51.738;10.050;2022-07-22T23:39:02;99507.84;;;16.73;97.57
5703;BME280;2876;51.738;10.050;2022-07-22T23:45:05;99520.19;;;17.05;97.27
5703;BME280;2876;51.738;10.050;2022-07-22T23:51:08;99530.91;;;16.99;98.00
5703;BME280;2876;51.738;10.050;2022-07-22T23:57:11;99510.94;;;17.29;97.19
